sensor_id;sensor_type;location;lat;lon;timestamp;P1;durP1;ratioP1;P2;durP2;ratioP2
1831;SDS011;1680;48.106;11.708;2023-02-11T00:00:17;19.88;;;14.98;;
1831;SDS011;1680;48.106;11.708;2023-02-11T00:02:44;19.45;;;15.60;;
1831;SDS011;1680;48.106;11.708;2023-02-11T00:05:12;20.25;;;14.73;;
1831;SDS011;1680;48.106;11.708;2023-02-11T00:07:41;20.65;;;14.60;;
1831;SDS011;1680;48.106;11.708;2023-02-11T00:10:08;20.25;;;15.40;;
1831;SDS011;1680;48.106;11.708;2023-02-11T00:12:36;19.30;;;15.38;;
1831;SDS011;1680;48.106;11.708;2023-02-11T00:15:04;19.27;;;15.00;;
1831;SDS011;1680;48.106;11.708;2023-02-11T00:17:33;19.90;;;15.30;;
1831;SDS011;1680;48.106;11.708;2023-02-11T00:20:00;19.30;;;14.60;;
1831;SDS011;1680;48.106;11.708;2023-02-11T00:22:28;19.00;;;14.77;;
1831;SDS011;1680;48.106;11.708;2023-02-11T00:24:57;18.80;;;13.93;;
1831;SDS011;1680;48.106;11.708;2023-02-11T00:27:25;18.95;;;14.98;;
1831;SDS011;1680;48.106;11.708;2023-02-11T00:29:52;19.52;;;13.70;;
1831;SDS011;1680;48.106;11.708;2023-02-11T00:32:20;18.65;;;13.80;;
1831;SDS011;1680;48.106;11.708;2023-02-11T00:34:50;15.75;;;12.57;;
1831;SDS011;1680;48.106;11.708;2023-02-11T00:37:19;16.70;;;13.73;;
1831;SDS011;1680;48.106;11.708;2023-02-11T00:39:47;18.38;;;14.02;;
1831;SDS011;1680;48.106;11.708;2023-02-11T00:42:16;20.73;;;14.40;;
1831;SDS011;1680;48.106;11.708;2023-02-11T00:44:43;18.58;;;14.07;;
1831;SDS011;1680;48.106;11.708;2023-02-11T00:47:11;17.70;;;13.13;;
1831;SDS011;1680;48.106;11.708;2023-02-11T00:49:38;18.25;;;14.18;;
1831;SDS011;1680;48.106;11.708;2023-02-11T00:52:06;18.33;;;13.02;;
1831;SDS011;1680;48.106;11.708;2023-02-11T00:54:33;16.50;;;12.80;;
1831;SDS011;1680;48.106;11.708;2023-02-11T00:57:00;15.88;;;12.75;;
1831;SDS011;1680;48.106;11.708;2023-02-11T00:59:29;15.82;;;12.30;;
1831;SDS011;1680;48.106;11.708;2023-02-11T01:01:57;16.65;;;12.43;;
1831;SDS011;1680;48.106;11.708;2023-02-11T01:04:24;21.25;;;12.93;;
1831;SDS011;1680;48.106;11.708;2023-02-11T01:06:52;15.13;;;12.48;;
1831;SDS011;1680;48.106;11.708;2023-02-11T01:09:19;14.43;;;11.43;;
1831;SDS011;1680;48.106;11.708;2023-02-11T01:11:46;14.82;;;11.57;;
1831;SDS011;1680;48.106;11.708;2023-02-11T01:14:14;17.00;;;11.25;;
1831;SDS011;1680;48.106;11.708;2023-02-11T01:16:43;16.70;;;12.20;;
1831;SDS011;1680;48.106;11.708;2023-02-11T01:19:10;13.48;;;10.90;;
1831;SDS011;1680;48.106;11.708;2023-02-11T01:21:38;14.73;;;10.82;;
1831;SDS011;1680;48.106;11.708;2023-02-11T01:24:06;11.82;;;10.10;;
1831;SDS011;1680;48.106;11.708;2023-02-11T01:26:33;13.88;;;11.32;;
1831;SDS011;1680;48.106;11.708;2023-02-11T01:29:00;12.70;;;10.43;;
1831;SDS011;1680;48.106;11.708;2023-02-11T01:31:28;14.02;;;11.60;;
1831;SDS011;1680;48.106;11.708;2023-02-11T01:33:58;15.68;;;11.02;;
1831;SDS011;1680;48.106;11.708;2023-02-11T01:36:25;11.82;;;10.23;;
1831;SDS011;1680;48.106;11.708;2023-02-11T01:38:53;13.40;;;11.32;;
1831;SDS011;1680;48.106;11.708;2023-02-11T01:41:20;14.20;;;10.90;;
1831;SDS011;1680;48.106;11.708;2023-02-11T01:43:48;13.85;;;10.07;;
1831;SDS011;1680;48.106;11.708;2023-02-11T01:49:02;13.82;;;10.35;;
1831;SDS011;1680;48.106;11.708;2023-02-11T01:51:32;12.77;;;10.25;;
1831;SDS011;1680;48.106;11.708;2023-02-11T01:54:03;14.13;;;10.32;;
1831;SDS011;1680;48.106;11.708;2023-02-11T01:56:50;11.02;;;9.65;;
1831;SDS011;1680;48.106;11.708;2023-02-11T01:59:38;11.13;;;9.50;;
1831;SDS011;1680;48.106;11.708;2023-02-11T02:02:10;11.73;;;8.90;;
1831;SDS011;1680;48.106;11.708;2023-02-11T02:04:43;13.38;;;9.75;;
1831;SDS011;1680;48.106;11.708;2023-02-11T02:07:16;13.20;;;10.18;;
1831;SDS011;1680;48.106;11.708;2023-02-11T02:09:50;14.52;;;10.38;;
1831;SDS011;1680;48.106;11.708;2023-02-11T02:12:22;11.57;;;9.10;;
1831;SDS011;1680;48.106;11.708;2023-02-11T02:14:49;15.23;;;9.07;;
1831;SDS011;1680;48.106;11.708;2023-02-11T02:17:21;12.25;;;9.82;;
1831;SDS011;1680;48.106;11.708;2023-02-11T02:23:05;12.35;;;8.98;;
1831;SDS011;1680;48.106;11.708;2023-02-11T02:29:07;14.48;;;9.55;;
1831;SDS011;1680;48.106;11.708;2023-02-11T02:31:55;10.95;;;9.27;;
1831;SDS011;1680;48.106;11.708;2023-02-11T02:34:38;12.85;;;8.93;;
1831;SDS011;1680;48.106;11.708;2023-02-11T02:37:11;13.15;;;9.40;;
1831;SDS011;1680;48.106;11.708;2023-02-11T02:39:45;11.68;;;9.63;;
1831;SDS011;1680;48.106;11.708;2023-02-11T02:42:15;10.68;;;8.50;;
1831;SDS011;1680;48.106;11.708;2023-02-11T02:44:47;11.40;;;8.45;;
1831;SDS011;1680;48.106;11.708;2023-02-11T02:47:16;13.07;;;9.10;;
1831;SDS011;1680;48.106;11.708;2023-02-11T02:49:44;14.30;;;10.10;;
1831;SDS011;1680;48.106;11.708;2023-02-11T02:52:15;11.52;;;9.18;;
1831;SDS011;1680;48.106;11.708;2023-02-11T02:58:10;11.70;;;8.90;;
1831;SDS011;1680;48.106;11.708;2023-02-11T03:00:58;11.50;;;8.45;;
1831;SDS011;1680;48.106;11.708;2023-02-11T03:03:37;9.50;;;8.48;;
1831;SDS011;1680;48.106;11.708;2023-02-11T03:06:13;11.82;;;9.20;;
1831;SDS011;1680;48.106;11.708;2023-02-11T03:08:48;11.90;;;8.75;;
1831;SDS011;1680;48.106;11.708;2023-02-11T03:11:20;11.82;;;8.63;;
1831;SDS011;1680;48.106;11.708;2023-02-11T03:13:49;10.45;;;8.45;;
1831;SDS011;1680;48.106;11.708;2023-02-11T03:16:18;10.95;;;8.40;;
1831;SDS011;1680;48.106;11.708;2023-02-11T03:18:55;10.50;;;8.07;;
1831;SDS011;1680;48.106;11.708;2023-02-11T03:21:28;11.70;;;8.60;;
1831;SDS011;1680;48.106;11.708;2023-02-11T03:23:59;9.07;;;7.60;;
1831;SDS011;1680;48.106;11.708;2023-02-11T03:26:33;8.38;;;7.07;;
1831;SDS011;1680;48.106;11.708;2023-02-11T03:29:07;9.95;;;8.57;;
1831;SDS011;1680;48.106;11.708;2023-02-11T03:31:41;8.70;;;7.40;;
1831;SDS011;1680;48.106;11.708;2023-02-11T03:34:20;9.25;;;7.20;;
1831;SDS011;1680;48.106;11.708;2023-02-11T03:36:52;12.02;;;7.50;;
1831;SDS011;1680;48.106;11.708;2023-02-11T03:39:23;9.68;;;7.45;;
1831;SDS011;1680;48.106;11.708;2023-02-11T03:41:54;8.40;;;6.90;;
1831;SDS011;1680;48.106;11.708;2023-02-11T03:44:25;9.60;;;7.68;;
1831;SDS011;1680;48.106;11.708;2023-02-11T03:46:57;8.70;;;6.95;;
1831;SDS011;1680;48.106;11.708;2023-02-11T03:49:28;9.25;;;7.35;;
1831;SDS011;1680;48.106;11.708;2023-02-11T03:51:58;8.90;;;6.53;;
1831;SDS011;1680;48.106;11.708;2023-02-11T03:54:30;9.23;;;6.78;;
1831;SDS011;1680;48.106;11.708;2023-02-11T03:56:58;7.70;;;6.38;;
1831;SDS011;1680;48.106;11.708;2023-02-11T03:59:27;8.95;;;6.32;;
1831;SDS011;1680;48.106;11.708;2023-02-11T04:01:55;8.75;;;6.20;;
1831;SDS011;1680;48.106;11.708;2023-02-11T04:04:23;9.55;;;6.95;;
1831;SDS011;1680;48.106;11.708;2023-02-11T04:06:52;8.35;;;6.13;;
1831;SDS011;1680;48.106;11.708;2023-02-11T04:09:21;7.72;;;6.22;;
1831;SDS011;1680;48.106;11.708;2023-02-11T04:11:49;9.48;;;6.80;;
1831;SDS011;1680;48.106;11.708;2023-02-11T04:14:16;8.57;;;6.60;;
1831;SDS011;1680;48.106;11.708;2023-02-11T04:16:43;9.18;;;6.18;;
1831;SDS011;1680;48.106;11.708;2023-02-11T04:19:11;8.18;;;6.10;;
1831;SDS011;1680;48.106;11.708;2023-02-11T04:21:38;7.97;;;6.70;;
1831;SDS011;1680;48.106;11.708;2023-02-11T04:24:07;8.57;;;6.38;;
1831;SDS011;1680;48.106;11.708;2023-02-11T04:26:34;7.80;;;5.88;;
1831;SDS011;1680;48.106;11.708;2023-02-11T04:29:01;6.45;;;5.75;;
1831;SDS011;1680;48.106;11.708;2023-02-11T04:31:29;7.18;;;6.45;;
1831;SDS011;1680;48.106;11.708;2023-02-11T04:33:56;8.27;;;6.20;;
1831;SDS011;1680;48.106;11.708;2023-02-11T04:36:23;9.55;;;6.50;;
1831;SDS011;1680;48.106;11.708;2023-02-11T04:38:51;8.75;;;5.82;;
1831;SDS011;1680;48.106;11.708;2023-02-11T04:41:20;7.25;;;5.93;;
1831;SDS011;1680;48.106;11.708;2023-02-11T04:43:47;7.72;;;5.78;;
1831;SDS011;1680;48.106;11.708;2023-02-11T04:46:14;6.60;;;5.50;;
1831;SDS011;1680;48.106;11.708;2023-02-11T04:48:42;6.53;;;5.63;;
1831;SDS011;1680;48.106;11.708;2023-02-11T04:51:09;8.18;;;6.30;;
1831;SDS011;1680;48.106;11.708;2023-02-11T04:53:36;7.57;;;5.57;;
1831;SDS011;1680;48.106;11.708;2023-02-11T04:56:04;6.85;;;5.85;;
1831;SDS011;1680;48.106;11.708;2023-02-11T04:58:33;6.95;;;5.45;;
1831;SDS011;1680;48.106;11.708;2023-02-11T05:01:04;6.80;;;5.40;;
1831;SDS011;1680;48.106;11.708;2023-02-11T05:03:32;7.90;;;5.80;;
1831;SDS011;1680;48.106;11.708;2023-02-11T05:06:00;8.63;;;5.60;;
1831;SDS011;1680;48.106;11.708;2023-02-11T05:08:27;7.18;;;6.18;;
1831;SDS011;1680;48.106;11.708;2023-02-11T05:10:55;8.05;;;6.32;;
1831;SDS011;1680;48.106;11.708;2023-02-11T05:13:23;7.15;;;5.80;;
1831;SDS011;1680;48.106;11.708;2023-02-11T05:15:52;7.00;;;5.20;;
1831;SDS011;1680;48.106;11.708;2023-02-11T05:18:20;6.97;;;5.55;;
1831;SDS011;1680;48.106;11.708;2023-02-11T05:20:47;6.88;;;6.13;;
1831;SDS011;1680;48.106;11.708;2023-02-11T05:23:14;5.85;;;4.97;;
1831;SDS011;1680;48.106;11.708;2023-02-11T05:25:42;7.38;;;5.30;;
1831;SDS011;1680;48.106;11.708;2023-02-11T05:28:09;8.10;;;6.03;;
1831;SDS011;1680;48.106;11.708;2023-02-11T05:30:36;8.48;;;6.80;;
1831;SDS011;1680;48.106;11.708;2023-02-11T05:33:05;6.68;;;6.00;;
1831;SDS011;1680;48.106;11.708;2023-02-11T05:35:32;7.53;;;6.72;;
1831;SDS011;1680;48.106;11.708;2023-02-11T05:38:00;8.93;;;7.95;;
1831;SDS011;1680;48.106;11.708;2023-02-11T05:40:27;7.93;;;7.13;;
1831;SDS011;1680;48.106;11.708;2023-02-11T05:42:55;7.97;;;6.70;;
1831;SDS011;1680;48.106;11.708;2023-02-11T05:45:22;8.05;;;7.10;;
1831;SDS011;1680;48.106;11.708;2023-02-11T05:47:50;8.23;;;5.80;;
1831;SDS011;1680;48.106;11.708;2023-02-11T05:50:18;5.75;;;5.15;;
1831;SDS011;1680;48.106;11.708;2023-02-11T05:52:46;7.13;;;5.43;;
1831;SDS011;1680;48.106;11.708;2023-02-11T05:55:13;8.73;;;5.80;;
1831;SDS011;1680;48.106;11.708;2023-02-11T05:57:41;7.38;;;5.95;;
1831;SDS011;1680;48.106;11.708;2023-02-11T06:00:08;6.55;;;5.63;;
1831;SDS011;1680;48.106;11.708;2023-02-11T06:02:36;6.30;;;5.20;;
1831;SDS011;1680;48.106;11.708;2023-02-11T06:05:04;5.78;;;5.28;;
1831;SDS011;1680;48.106;11.708;2023-02-11T06:07:33;6.28;;;5.30;;
1831;SDS011;1680;48.106;11.708;2023-02-11T06:10:01;6.50;;;5.30;;
1831;SDS011;1680;48.106;11.708;2023-02-11T06:12:28;6.45;;;4.93;;
1831;SDS011;1680;48.106;11.708;2023-02-11T06:14:55;5.63;;;4.65;;
1831;SDS011;1680;48.106;11.708;2023-02-11T06:17:23;5.10;;;4.60;;
1831;SDS011;1680;48.106;11.708;2023-02-11T06:19:50;5.80;;;5.00;;
1831;SDS011;1680;48.106;11.708;2023-02-11T06:22:17;9.52;;;5.10;;
1831;SDS011;1680;48.106;11.708;2023-02-11T06:24:46;5.95;;;5.07;;
1831;SDS011;1680;48.106;11.708;2023-02-11T06:27:13;7.45;;;5.25;;
1831;SDS011;1680;48.106;11.708;2023-02-11T06:29:42;5.72;;;4.80;;
1831;SDS011;1680;48.106;11.708;2023-02-11T06:32:09;5.47;;;4.93;;
1831;SDS011;1680;48.106;11.708;2023-02-11T06:34:37;5.78;;;5.18;;
1831;SDS011;1680;48.106;11.708;2023-02-11T06:37:04;10.02;;;5.15;;
1831;SDS011;1680;48.106;11.708;2023-02-11T06:39:31;7.68;;;5.60;;
1831;SDS011;1680;48.106;11.708;2023-02-11T06:42:00;6.57;;;4.72;;
1831;SDS011;1680;48.106;11.708;2023-02-11T06:44:27;6.57;;;5.82;;
1831;SDS011;1680;48.106;11.708;2023-02-11T06:46:56;6.47;;;4.85;;
1831;SDS011;1680;48.106;11.708;2023-02-11T06:49:23;6.20;;;5.50;;
1831;SDS011;1680;48.106;11.708;2023-02-11T06:51:50;6.85;;;5.10;;
1831;SDS011;1680;48.106;11.708;2023-02-11T06:54:17;5.80;;;4.78;;
1831;SDS011;1680;48.106;11.708;2023-02-11T06:56:45;7.75;;;5.18;;
1831;SDS011;1680;48.106;11.708;2023-02-11T06:59:15;6.03;;;4.88;;
1831;SDS011;1680;48.106;11.708;2023-02-11T07:01:44;5.85;;;4.97;;
1831;SDS011;1680;48.106;11.708;2023-02-11T07:04:12;9.45;;;6.95;;
1831;SDS011;1680;48.106;11.708;2023-02-11T07:06:40;13.32;;;7.93;;
1831;SDS011;1680;48.106;11.708;2023-02-11T07:09:07;12.93;;;8.20;;
1831;SDS011;1680;48.106;11.708;2023-02-11T07:11:34;9.63;;;7.18;;
1831;SDS011;1680;48.106;11.708;2023-02-11T07:14:02;8.98;;;6.22;;
1831;SDS011;1680;48.106;11.708;2023-02-11T07:16:34;9.10;;;5.65;;
1831;SDS011;1680;48.106;11.708;2023-02-11T07:19:01;8.00;;;5.90;;
1831;SDS011;1680;48.106;11.708;2023-02-11T07:21:29;9.10;;;6.57;;
1831;SDS011;1680;48.106;11.708;2023-02-11T07:23:56;17.90;;;10.40;;
1831;SDS011;1680;48.106;11.708;2023-02-11T07:26:23;16.65;;;9.70;;
1831;SDS011;1680;48.106;11.708;2023-02-11T07:28:51;14.68;;;9.93;;
1831;SDS011;1680;48.106;11.708;2023-02-11T07:31:20;13.25;;;8.23;;
1831;SDS011;1680;48.106;11.708;2023-02-11T07:33:52;8.88;;;6.32;;
1831;SDS011;1680;48.106;11.708;2023-02-11T07:36:20;5.85;;;4.50;;
1831;SDS011;1680;48.106;11.708;2023-02-11T07:38:48;7.53;;;4.95;;
1831;SDS011;1680;48.106;11.708;2023-02-11T07:41:16;5.00;;;3.95;;
1831;SDS011;1680;48.106;11.708;2023-02-11T07:43:45;5.75;;;4.30;;
1831;SDS011;1680;48.106;11.708;2023-02-11T07:46:14;5.15;;;4.40;;
1831;SDS011;1680;48.106;11.708;2023-02-11T07:48:43;5.63;;;4.65;;
1831;SDS011;1680;48.106;11.708;2023-02-11T07:51:12;5.95;;;4.95;;
1831;SDS011;1680;48.106;11.708;2023-02-11T07:53:41;6.00;;;5.38;;
1831;SDS011;1680;48.106;11.708;2023-02-11T07:56:09;7.05;;;5.25;;
1831;SDS011;1680;48.106;11.708;2023-02-11T07:58:38;5.97;;;4.78;;
1831;SDS011;1680;48.106;11.708;2023-02-11T08:01:06;6.57;;;4.55;;
1831;SDS011;1680;48.106;11.708;2023-02-11T08:03:35;5.00;;;4.50;;
1831;SDS011;1680;48.106;11.708;2023-02-11T08:06:04;6.80;;;5.00;;
1831;SDS011;1680;48.106;11.708;2023-02-11T08:08:34;5.57;;;4.60;;
1831;SDS011;1680;48.106;11.708;2023-02-11T08:11:04;7.80;;;5.57;;
1831;SDS011;1680;48.106;11.708;2023-02-11T08:13:33;6.30;;;5.15;;
1831;SDS011;1680;48.106;11.708;2023-02-11T08:16:00;11.15;;;6.05;;
1831;SDS011;1680;48.106;11.708;2023-02-11T08:18:28;5.45;;;4.13;;
1831;SDS011;1680;48.106;11.708;2023-02-11T08:20:55;5.15;;;4.45;;
1831;SDS011;1680;48.106;11.708;2023-02-11T08:23:23;7.35;;;5.35;;
1831;SDS011;1680;48.106;11.708;2023-02-11T08:25:51;6.25;;;5.05;;
1831;SDS011;1680;48.106;11.708;2023-02-11T08:28:19;7.10;;;5.03;;
1831;SDS011;1680;48.106;11.708;2023-02-11T08:30:46;7.30;;;5.90;;
1831;SDS011;1680;48.106;11.708;2023-02-11T08:33:13;8.95;;;5.15;;
1831;SDS011;1680;48.106;11.708;2023-02-11T08:35:40;7.00;;;5.03;;
1831;SDS011;1680;48.106;11.708;2023-02-11T08:38:07;10.88;;;5.75;;
1831;SDS011;1680;48.106;11.708;2023-02-11T08:40:35;6.47;;;5.00;;
1831;SDS011;1680;48.106;11.708;2023-02-11T08:43:03;8.65;;;6.28;;
1831;SDS011;1680;48.106;11.708;2023-02-11T08:45:31;9.25;;;5.20;;
1831;SDS011;1680;48.106;11.708;2023-02-11T08:47:58;7.47;;;5.90;;
1831;SDS011;1680;48.106;11.708;2023-02-11T08:50:26;7.68;;;5.70;;
1831;SDS011;1680;48.106;11.708;2023-02-11T08:52:53;8.70;;;6.28;;
1831;SDS011;1680;48.106;11.708;2023-02-11T08:55:20;7.45;;;5.75;;
1831;SDS011;1680;48.106;11.708;2023-02-11T08:57:48;8.13;;;6.40;;
1831;SDS011;1680;48.106;11.708;2023-02-11T09:00:17;7.93;;;5.82;;
1831;SDS011;1680;48.106;11.708;2023-02-11T09:02:45;9.25;;;6.65;;
1831;SDS011;1680;48.106;11.708;2023-02-11T09:05:12;6.85;;;5.70;;
1831;SDS011;1680;48.106;11.708;2023-02-11T09:07:39;9.15;;;6.75;;
1831;SDS011;1680;48.106;11.708;2023-02-11T09:10:07;7.78;;;5.75;;
1831;SDS011;1680;48.106;11.708;2023-02-11T09:12:34;8.27;;;6.30;;
1831;SDS011;1680;48.106;11.708;2023-02-11T09:15:02;7.55;;;5.95;;
1831;SDS011;1680;48.106;11.708;2023-02-11T09:17:30;8.90;;;6.95;;
1831;SDS011;1680;48.106;11.708;2023-02-11T09:19:58;8.48;;;6.05;;
1831;SDS011;1680;48.106;11.708;2023-02-11T09:22:25;8.10;;;5.90;;
1831;SDS011;1680;48.106;11.708;2023-02-11T09:24:52;9.23;;;5.75;;
1831;SDS011;1680;48.106;11.708;2023-02-11T09:27:20;8.77;;;5.85;;
1831;SDS011;1680;48.106;11.708;2023-02-11T09:29:47;11.75;;;6.80;;
1831;SDS011;1680;48.106;11.708;2023-02-11T09:32:14;13.20;;;6.40;;
1831;SDS011;1680;48.106;11.708;2023-02-11T09:34:43;8.48;;;5.95;;
1831;SDS011;1680;48.106;11.708;2023-02-11T09:37:11;10.27;;;6.18;;
1831;SDS011;1680;48.106;11.708;2023-02-11T09:39:38;7.63;;;5.95;;
1831;SDS011;1680;48.106;11.708;2023-02-11T09:42:12;9.50;;;6.35;;
1831;SDS011;1680;48.106;11.708;2023-02-11T09:44:54;7.50;;;5.97;;
1831;SDS011;1680;48.106;11.708;2023-02-11T09:47:25;7.35;;;5.20;;
1831;SDS011;1680;48.106;11.708;2023-02-11T09:49:59;8.80;;;5.90;;
1831;SDS011;1680;48.106;11.708;2023-02-11T09:52:31;6.35;;;4.80;;
1831;SDS011;1680;48.106;11.708;2023-02-11T09:55:04;8.50;;;5.90;;
1831;SDS011;1680;48.106;11.708;2023-02-11T09:57:39;7.68;;;5.85;;
1831;SDS011;1680;48.106;11.708;2023-02-11T10:00:14;12.20;;;6.00;;
1831;SDS011;1680;48.106;11.708;2023-02-11T10:02:51;8.13;;;6.03;;
1831;SDS011;1680;48.106;11.708;2023-02-11T10:05:57;7.70;;;5.35;;
1831;SDS011;1680;48.106;11.708;2023-02-11T10:08:39;5.97;;;5.32;;
1831;SDS011;1680;48.106;11.708;2023-02-11T10:11:15;11.40;;;6.63;;
1831;SDS011;1680;48.106;11.708;2023-02-11T10:13:51;8.65;;;6.28;;
1831;SDS011;1680;48.106;11.708;2023-02-11T10:16:30;7.63;;;6.03;;
1831;SDS011;1680;48.106;11.708;2023-02-11T10:19:15;9.77;;;5.85;;
1831;SDS011;1680;48.106;11.708;2023-02-11T10:22:07;10.63;;;6.85;;
1831;SDS011;1680;48.106;11.708;2023-02-11T10:24:37;9.52;;;6.28;;
1831;SDS011;1680;48.106;11.708;2023-02-11T10:27:11;9.27;;;6.53;;
1831;SDS011;1680;48.106;11.708;2023-02-11T10:29:44;9.97;;;6.53;;
1831;SDS011;1680;48.106;11.708;2023-02-11T10:32:21;11.47;;;7.00;;
1831;SDS011;1680;48.106;11.708;2023-02-11T10:34:59;10.03;;;7.07;;
1831;SDS011;1680;48.106;11.708;2023-02-11T10:37:31;11.20;;;7.60;;
1831;SDS011;1680;48.106;11.708;2023-02-11T10:39:58;12.73;;;7.63;;
1831;SDS011;1680;48.106;11.708;2023-02-11T10:42:25;12.60;;;7.73;;
1831;SDS011;1680;48.106;11.708;2023-02-11T10:44:56;15.70;;;7.50;;
1831;SDS011;1680;48.106;11.708;2023-02-11T10:47:26;10.33;;;6.23;;
1831;SDS011;1680;48.106;11.708;2023-02-11T10:49:57;12.10;;;8.00;;
1831;SDS011;1680;48.106;11.708;2023-02-11T10:52:28;12.33;;;8.63;;
1831;SDS011;1680;48.106;11.708;2023-02-11T10:54:59;10.53;;;7.60;;
1831;SDS011;1680;48.106;11.708;2023-02-11T10:57:29;10.30;;;7.40;;
1831;SDS011;1680;48.106;11.708;2023-02-11T11:00:05;13.20;;;7.73;;
1831;SDS011;1680;48.106;11.708;2023-02-11T11:02:51;10.70;;;8.00;;
1831;SDS011;1680;48.106;11.708;2023-02-11T11:05:22;11.00;;;8.00;;
1831;SDS011;1680;48.106;11.708;2023-02-11T11:07:55;12.40;;;7.87;;
1831;SDS011;1680;48.106;11.708;2023-02-11T11:10:27;12.37;;;8.40;;
1831;SDS011;1680;48.106;11.708;2023-02-11T11:12:57;12.60;;;8.53;;
1831;SDS011;1680;48.106;11.708;2023-02-11T11:15:25;14.73;;;8.03;;
1831;SDS011;1680;48.106;11.708;2023-02-11T11:18:08;12.33;;;8.80;;
1831;SDS011;1680;48.106;11.708;2023-02-11T11:20:40;10.80;;;6.73;;
1831;SDS011;1680;48.106;11.708;2023-02-11T11:23:20;10.73;;;7.47;;
1831;SDS011;1680;48.106;11.708;2023-02-11T11:25:59;10.57;;;7.23;;
1831;SDS011;1680;48.106;11.708;2023-02-11T11:28:30;10.13;;;7.20;;
1831;SDS011;1680;48.106;11.708;2023-02-11T11:31:03;12.83;;;7.97;;
1831;SDS011;1680;48.106;11.708;2023-02-11T11:33:32;10.87;;;7.03;;
1831;SDS011;1680;48.106;11.708;2023-02-11T11:36:02;14.47;;;7.80;;
1831;SDS011;1680;48.106;11.708;2023-02-11T11:38:34;9.27;;;6.90;;
1831;SDS011;1680;48.106;11.708;2023-02-11T11:41:19;12.97;;;7.77;;
1831;SDS011;1680;48.106;11.708;2023-02-11T11:43:53;11.90;;;7.90;;
1831;SDS011;1680;48.106;11.708;2023-02-11T11:46:26;11.77;;;7.80;;
1831;SDS011;1680;48.106;11.708;2023-02-11T11:48:58;13.23;;;8.67;;
1831;SDS011;1680;48.106;11.708;2023-02-11T11:51:33;11.30;;;7.60;;
1831;SDS011;1680;48.106;11.708;2023-02-11T11:54:05;11.27;;;7.30;;
1831;SDS011;1680;48.106;11.708;2023-02-11T11:56:40;11.97;;;7.60;;
1831;SDS011;1680;48.106;11.708;2023-02-11T11:59:13;10.43;;;7.10;;
1831;SDS011;1680;48.106;11.708;2023-02-11T12:01:45;11.80;;;7.50;;
1831;SDS011;1680;48.106;11.708;2023-02-11T12:04:29;11.87;;;6.87;;
1831;SDS011;1680;48.106;11.708;2023-02-11T12:07:17;10.03;;;7.57;;
1831;SDS011;1680;48.106;11.708;2023-02-11T12:09:55;10.60;;;6.57;;
1831;SDS011;1680;48.106;11.708;2023-02-11T12:12:49;11.77;;;7.53;;
1831;SDS011;1680;48.106;11.708;2023-02-11T12:15:26;9.03;;;6.93;;
1831;SDS011;1680;48.106;11.708;2023-02-11T12:18:10;11.27;;;7.53;;
1831;SDS011;1680;48.106;11.708;2023-02-11T12:21:07;10.90;;;7.13;;
1831;SDS011;1680;48.106;11.708;2023-02-11T12:23:47;13.67;;;7.60;;
1831;SDS011;1680;48.106;11.708;2023-02-11T12:26:25;10.60;;;7.53;;
1831;SDS011;1680;48.106;11.708;2023-02-11T12:29:04;12.10;;;7.03;;
1831;SDS011;1680;48.106;11.708;2023-02-11T12:31:41;11.17;;;7.10;;
1831;SDS011;1680;48.106;11.708;2023-02-11T12:34:21;10.97;;;7.33;;
1831;SDS011;1680;48.106;11.708;2023-02-11T12:37:17;11.33;;;6.97;;
1831;SDS011;1680;48.106;11.708;2023-02-11T12:39:55;10.67;;;6.80;;
1831;SDS011;1680;48.106;11.708;2023-02-11T12:42:43;10.00;;;6.43;;
1831;SDS011;1680;48.106;11.708;2023-02-11T12:45:43;7.67;;;6.40;;
1831;SDS011;1680;48.106;11.708;2023-02-11T12:48:26;10.67;;;7.70;;
1831;SDS011;1680;48.106;11.708;2023-02-11T12:51:16;9.50;;;7.17;;
1831;SDS011;1680;48.106;11.708;2023-02-11T12:54:05;13.90;;;7.20;;
1831;SDS011;1680;48.106;11.708;2023-02-11T12:56:44;9.70;;;7.23;;
1831;SDS011;1680;48.106;11.708;2023-02-11T12:59:16;13.13;;;8.30;;
1831;SDS011;1680;48.106;11.708;2023-02-11T13:01:56;11.40;;;7.77;;
1831;SDS011;1680;48.106;11.708;2023-02-11T13:04:27;11.50;;;8.17;;
1831;SDS011;1680;48.106;11.708;2023-02-11T13:07:01;12.63;;;8.17;;
1831;SDS011;1680;48.106;11.708;2023-02-11T13:09:34;11.40;;;7.73;;
1831;SDS011;1680;48.106;11.708;2023-02-11T13:12:08;13.00;;;8.13;;
1831;SDS011;1680;48.106;11.708;2023-02-11T13:14:57;10.60;;;7.50;;
1831;SDS011;1680;48.106;11.708;2023-02-11T13:17:31;10.33;;;7.60;;
1831;SDS011;1680;48.106;11.708;2023-02-11T13:20:05;8.70;;;6.80;;
1831;SDS011;1680;48.106;11.708;2023-02-11T13:22:42;11.23;;;7.53;;
1831;SDS011;1680;48.106;11.708;2023-02-11T13:25:16;10.67;;;8.00;;
1831;SDS011;1680;48.106;11.708;2023-02-11T13:27:50;11.30;;;7.63;;
1831;SDS011;1680;48.106;11.708;2023-02-11T13:30:25;9.23;;;6.80;;
1831;SDS011;1680;48.106;11.708;2023-02-11T13:33:05;12.07;;;7.73;;
1831;SDS011;1680;48.106;11.708;2023-02-11T13:39:04;12.10;;;7.10;;
1831;SDS011;1680;48.106;11.708;2023-02-11T13:41:34;10.90;;;7.20;;
1831;SDS011;1680;48.106;11.708;2023-02-11T13:44:19;11.90;;;8.17;;
1831;SDS011;1680;48.106;11.708;2023-02-11T13:46:53;11.50;;;7.80;;
1831;SDS011;1680;48.106;11.708;2023-02-11T13:49:30;12.03;;;7.97;;
1831;SDS011;1680;48.106;11.708;2023-02-11T13:52:00;13.30;;;8.57;;
1831;SDS011;1680;48.106;11.708;2023-02-11T13:54:32;9.70;;;6.07;;
1831;SDS011;1680;48.106;11.708;2023-02-11T13:57:24;10.90;;;7.37;;
1831;SDS011;1680;48.106;11.708;2023-02-11T14:00:06;9.83;;;7.07;;
1831;SDS011;1680;48.106;11.708;2023-02-11T14:06:22;14.33;;;8.40;;
1831;SDS011;1680;48.106;11.708;2023-02-11T14:09:31;11.63;;;7.40;;
1831;SDS011;1680;48.106;11.708;2023-02-11T14:14:58;12.20;;;7.47;;
1831;SDS011;1680;48.106;11.708;2023-02-11T14:17:28;10.93;;;6.70;;
1831;SDS011;1680;48.106;11.708;2023-02-11T14:19:57;13.63;;;8.07;;
1831;SDS011;1680;48.106;11.708;2023-02-11T14:22:26;11.83;;;7.73;;
1831;SDS011;1680;48.106;11.708;2023-02-11T14:24:59;13.90;;;8.30;;
1831;SDS011;1680;48.106;11.708;2023-02-11T14:27:29;10.73;;;7.63;;
1831;SDS011;1680;48.106;11.708;2023-02-11T14:30:06;9.93;;;7.07;;
1831;SDS011;1680;48.106;11.708;2023-02-11T14:32:43;10.67;;;6.60;;
1831;SDS011;1680;48.106;11.708;2023-02-11T14:35:22;11.10;;;7.83;;
1831;SDS011;1680;48.106;11.708;2023-02-11T14:37:57;9.40;;;6.87;;
1831;SDS011;1680;48.106;11.708;2023-02-11T14:40:37;13.43;;;7.90;;
1831;SDS011;1680;48.106;11.708;2023-02-11T14:43:12;13.30;;;7.60;;
1831;SDS011;1680;48.106;11.708;2023-02-11T14:45:44;15.70;;;8.03;;
1831;SDS011;1680;48.106;11.708;2023-02-11T14:48:17;10.80;;;7.53;;
1831;SDS011;1680;48.106;11.708;2023-02-11T14:50:47;12.67;;;7.90;;
1831;SDS011;1680;48.106;11.708;2023-02-11T14:53:17;10.00;;;7.60;;
1831;SDS011;1680;48.106;11.708;2023-02-11T14:55:49;11.47;;;8.63;;
1831;SDS011;1680;48.106;11.708;2023-02-11T14:58:18;13.00;;;8.40;;
1831;SDS011;1680;48.106;11.708;2023-02-11T15:00:52;11.37;;;8.03;;
1831;SDS011;1680;48.106;11.708;2023-02-11T15:03:26;13.90;;;9.00;;
1831;SDS011;1680;48.106;11.708;2023-02-11T15:05:55;13.00;;;8.47;;
1831;SDS011;1680;48.106;11.708;2023-02-11T15:08:24;13.10;;;7.43;;
1831;SDS011;1680;48.106;11.708;2023-02-11T15:10:53;12.10;;;7.90;;
1831;SDS011;1680;48.106;11.708;2023-02-11T15:13:22;11.20;;;7.80;;
1831;SDS011;1680;48.106;11.708;2023-02-11T15:15:57;13.60;;;8.57;;
1831;SDS011;1680;48.106;11.708;2023-02-11T15:18:33;11.43;;;9.20;;
1831;SDS011;1680;48.106;11.708;2023-02-11T15:21:03;10.80;;;7.13;;
1831;SDS011;1680;48.106;11.708;2023-02-11T15:23:31;14.07;;;8.43;;
1831;SDS011;1680;48.106;11.708;2023-02-11T15:26:00;11.17;;;7.70;;
1831;SDS011;1680;48.106;11.708;2023-02-11T15:28:30;14.30;;;8.80;;
1831;SDS011;1680;48.106;11.708;2023-02-11T15:31:01;13.43;;;8.70;;
1831;SDS011;1680;48.106;11.708;2023-02-11T15:33:31;12.80;;;9.57;;
1831;SDS011;1680;48.106;11.708;2023-02-11T15:35:59;12.83;;;8.63;;
1831;SDS011;1680;48.106;11.708;2023-02-11T15:38:27;13.43;;;9.83;;
1831;SDS011;1680;48.106;11.708;2023-02-11T15:40:55;16.73;;;10.00;;